Ventress, LA

8:54 PM CST on December 13, 2019 (GMT -0600)
Jarreau | | Change Station
Active Advisory: Dense Fog Advisory

Elev 69 ft 30.61 °N, 91.38 °W | Updated 6 seconds ago

Partly Cloudy
Partly Cloudy
48.7 °F
Feels Like 49 °F
N
0
Wind Variable Wind from NNW
Gusts 0.0 mph

Today
High -- | Low -- °F
--% Chance of Precip.
Yesterday
High -- | Low -- °F
Precip. -- in
Pressure 29.84 in
Visibility 7.0 miles
Clouds Scattered Clouds 200 ft
Windchill 49 °F
Dew Point 47 °F
Humidity 95%
Rainfall 0.00 in
Snow Depth Not available.
6:54 AM 5:05 PM
Waning Gibbous, 96% visible
METAR KHZR 140215Z AUTO 00000KT 7SM SCT002 09/09 A2984 RMK AO2
Pressure 29.84 in
Visibility 7.0 miles
Clouds Scattered Clouds 200 ft
Windchill 49 °F
Dew Point 47 °F
Humidity 95%
Rainfall 0.00 in
Snow Depth Not available.
6:54 AM 5:05 PM
Waning Gibbous, 96% visible
METAR KHZR 140215Z AUTO 00000KT 7SM SCT002 09/09 A2984 RMK AO2

Get Your Daily Forecast Email!

Thanks for signing up!

Be on the lookout for a verification email in your inbox.

You'll start receiving severe weather alerts in your inbox..

×

10-Day Weather Forecast

Almanac

Astronomy

Dec. 13, 2019 Rise Set
Actual Time
Civil Twilight
Nautical Twilight
Astronomical Twilight
Moon
Length of Visible Light
Length of Day
Tomorrow will be .
, % of the Moon is Illuminated

Today's Extremes

State Highs State Lows

Community

WunderPhotos

Category 6

Welcome to Category 6. This is the collective home for Weather Underground's featured writeups by Dr. Jeff Masters (right), Bob Henson (left), Chris Burt, and other regular contributors.

Nearby

Air Quality

  Air Quality AQ Index Pollutant
Not available.

Snow Depth

Station Depth Elevation

Earthquake Activity

City Distance Mag. Time & Date
Minimum magnitude displayed is 2.5.

Coastal Water Temperatures

Place Temperature

Stations

Nearby Weather Stations

Station Location Temp. Windchill Dew Point Humidity Wind Precip. Elev Updated Type
                   

Watches & Warnings

Dense Fog Advisory
Issued: 2:56 PM CST Dec. 13, 2019 – National Weather Service

... Dense fog advisory in effect from 9 PM this evening to 10 am
CST Saturday...

* what... visibility one quarter mile or less in dense fog.

* Where... all of southeast Louisiana, coastal Mississippi, and
southwest Mississippi except for lower Plaquemines Parish.

* When... from 9 PM this evening to 10 am CST Saturday.

* Impacts... hazardous driving conditions due to low visibility.

Precautionary/preparedness actions...

If driving, slow down, use your headlights, and leave plenty of
distance ahead of you.